sensor_id;sensor_type;location;lat;lon;timestamp;temperature;humidity
69382;DHT22;56560;50.692;12.844;2024-01-15T00:01:30;1.00;72.00
69382;DHT22;56560;50.692;12.844;2024-01-15T00:03:55;1.00;72.00
69382;DHT22;56560;50.692;12.844;2024-01-15T00:06:21;1.00;71.50
69382;DHT22;56560;50.692;12.844;2024-01-15T00:08:47;1.00;71.50
69382;DHT22;56560;50.692;12.844;2024-01-15T00:11:12;1.00;71.40
69382;DHT22;56560;50.692;12.844;2024-01-15T00:13:38;1.00;71.50
69382;DHT22;56560;50.692;12.844;2024-01-15T00:16:07;1.00;71.40
69382;DHT22;56560;50.692;12.844;2024-01-15T00:18:32;1.00;71.20
69382;DHT22;56560;50.692;12.844;2024-01-15T00:20:58;1.00;70.90
69382;DHT22;56560;50.692;12.844;2024-01-15T00:23:24;1.00;70.80
69382;DHT22;56560;50.692;12.844;2024-01-15T00:25:51;1.00;70.60
69382;DHT22;56560;50.692;12.844;2024-01-15T00:28:17;1.00;70.70
69382;DHT22;56560;50.692;12.844;2024-01-15T00:30:42;0.90;70.50
69382;DHT22;56560;50.692;12.844;2024-01-15T00:33:08;0.90;70.80
69382;DHT22;56560;50.692;12.844;2024-01-15T00:35:34;0.90;70.70
69382;DHT22;56560;50.692;12.844;2024-01-15T00:37:59;0.90;70.90
69382;DHT22;56560;50.692;12.844;2024-01-15T00:40:25;0.90;70.80
69382;DHT22;56560;50.692;12.844;2024-01-15T00:42:51;0.90;70.70
69382;DHT22;56560;50.692;12.844;2024-01-15T00:45:16;1.00;70.70
69382;DHT22;56560;50.692;12.844;2024-01-15T00:47:42;0.90;70.40
69382;DHT22;56560;50.692;12.844;2024-01-15T00:50:08;0.90;70.50
69382;DHT22;56560;50.692;12.844;2024-01-15T00:52:34;1.00;70.20
69382;DHT22;56560;50.692;12.844;2024-01-15T00:54:59;1.00;70.30
69382;DHT22;56560;50.692;12.844;2024-01-15T00:57:25;1.00;70.20
69382;DHT22;56560;50.692;12.844;2024-01-15T00:59:51;1.00;69.50
69382;DHT22;56560;50.692;12.844;2024-01-15T01:02:16;1.00;69.90
69382;DHT22;56560;50.692;12.844;2024-01-15T01:04:42;1.00;69.70
69382;DHT22;56560;50.692;12.844;2024-01-15T01:07:08;1.10;69.60
69382;DHT22;56560;50.692;12.844;2024-01-15T01:09:33;1.10;69.40
69382;DHT22;56560;50.692;12.844;2024-01-15T01:11:59;1.10;69.30
69382;DHT22;56560;50.692;12.844;2024-01-15T01:14:24;1.20;70.00
69382;DHT22;56560;50.692;12.844;2024-01-15T01:16:50;1.10;73.20
69382;DHT22;56560;50.692;12.844;2024-01-15T01:19:16;1.10;74.20
69382;DHT22;56560;50.692;12.844;2024-01-15T01:21:42;1.00;74.70
69382;DHT22;56560;50.692;12.844;2024-01-15T01:24:07;0.90;74.80
69382;DHT22;56560;50.692;12.844;2024-01-15T01:26:33;0.80;75.60
69382;DHT22;56560;50.692;12.844;2024-01-15T01:28:58;0.70;76.30
69382;DHT22;56560;50.692;12.844;2024-01-15T01:31:24;0.70;76.50
69382;DHT22;56560;50.692;12.844;2024-01-15T01:33:50;0.70;74.60
69382;DHT22;56560;50.692;12.844;2024-01-15T01:36:16;0.70;74.60
69382;DHT22;56560;50.692;12.844;2024-01-15T01:38:41;0.60;74.00
69382;DHT22;56560;50.692;12.844;2024-01-15T01:41:07;0.60;73.50
69382;DHT22;56560;50.692;12.844;2024-01-15T01:43:33;0.60;74.30
69382;DHT22;56560;50.692;12.844;2024-01-15T01:46:00;0.60;74.40
69382;DHT22;56560;50.692;12.844;2024-01-15T01:48:26;0.60;74.30
69382;DHT22;56560;50.692;12.844;2024-01-15T01:50:58;0.60;74.40
69382;DHT22;56560;50.692;12.844;2024-01-15T01:53:26;0.60;73.50
69382;DHT22;56560;50.692;12.844;2024-01-15T01:55:52;0.60;72.90
69382;DHT22;56560;50.692;12.844;2024-01-15T01:58:19;0.60;72.40
69382;DHT22;56560;50.692;12.844;2024-01-15T02:00:46;0.60;72.40
69382;DHT22;56560;50.692;12.844;2024-01-15T02:03:12;0.50;71.90
69382;DHT22;56560;50.692;12.844;2024-01-15T02:05:39;0.50;71.50
69382;DHT22;56560;50.692;12.844;2024-01-15T02:08:05;0.40;71.90
69382;DHT22;56560;50.692;12.844;2024-01-15T02:10:31;0.40;71.90
69382;DHT22;56560;50.692;12.844;2024-01-15T02:12:57;0.40;71.80
69382;DHT22;56560;50.692;12.844;2024-01-15T02:15:23;0.40;71.70
69382;DHT22;56560;50.692;12.844;2024-01-15T02:17:59;0.40;71.60
69382;DHT22;56560;50.692;12.844;2024-01-15T02:20:25;0.40;71.80
69382;DHT22;56560;50.692;12.844;2024-01-15T02:22:51;0.40;71.70
69382;DHT22;56560;50.692;12.844;2024-01-15T02:25:18;0.40;71.60
69382;DHT22;56560;50.692;12.844;2024-01-15T02:27:44;0.40;71.60
69382;DHT22;56560;50.692;12.844;2024-01-15T02:30:11;0.40;71.50
69382;DHT22;56560;50.692;12.844;2024-01-15T02:32:37;0.30;71.10
69382;DHT22;56560;50.692;12.844;2024-01-15T02:35:03;0.30;71.40
69382;DHT22;56560;50.692;12.844;2024-01-15T02:37:29;0.20;71.80
69382;DHT22;56560;50.692;12.844;2024-01-15T02:39:54;0.30;71.70
69382;DHT22;56560;50.692;12.844;2024-01-15T02:42:20;0.30;71.60
69382;DHT22;56560;50.692;12.844;2024-01-15T02:44:46;0.30;71.40
69382;DHT22;56560;50.692;12.844;2024-01-15T02:47:11;0.30;71.60
69382;DHT22;56560;50.692;12.844;2024-01-15T02:49:37;0.30;71.30
69382;DHT22;56560;50.692;12.844;2024-01-15T02:52:03;0.30;71.30
69382;DHT22;56560;50.692;12.844;2024-01-15T02:54:28;0.30;71.10
69382;DHT22;56560;50.692;12.844;2024-01-15T02:56:54;0.30;71.10
69382;DHT22;56560;50.692;12.844;2024-01-15T02:59:20;0.20;71.00
69382;DHT22;56560;50.692;12.844;2024-01-15T03:01:45;0.20;70.70
69382;DHT22;56560;50.692;12.844;2024-01-15T03:04:11;0.10;71.10
69382;DHT22;56560;50.692;12.844;2024-01-15T03:06:37;0.00;71.70
69382;DHT22;56560;50.692;12.844;2024-01-15T03:09:02;0.00;71.40
69382;DHT22;56560;50.692;12.844;2024-01-15T03:11:29;0.00;72.10
69382;DHT22;56560;50.692;12.844;2024-01-15T03:13:54;0.00;73.00
69382;DHT22;56560;50.692;12.844;2024-01-15T03:16:20;0.00;73.10
69382;DHT22;56560;50.692;12.844;2024-01-15T03:18:46;-0.10;73.90
69382;DHT22;56560;50.692;12.844;2024-01-15T03:21:11;-0.20;73.60
69382;DHT22;56560;50.692;12.844;2024-01-15T03:23:37;-0.20;73.90
69382;DHT22;56560;50.692;12.844;2024-01-15T03:26:03;-0.20;74.70
69382;DHT22;56560;50.692;12.844;2024-01-15T03:28:29;-0.10;75.20
69382;DHT22;56560;50.692;12.844;2024-01-15T03:30:55;-0.20;75.60
69382;DHT22;56560;50.692;12.844;2024-01-15T03:33:21;-0.10;75.80
69382;DHT22;56560;50.692;12.844;2024-01-15T03:35:47;-0.20;75.10
69382;DHT22;56560;50.692;12.844;2024-01-15T03:38:13;-0.10;74.70
69382;DHT22;56560;50.692;12.844;2024-01-15T03:40:39;-0.20;73.60
69382;DHT22;56560;50.692;12.844;2024-01-15T03:43:04;-0.20;73.30
69382;DHT22;56560;50.692;12.844;2024-01-15T03:45:30;-0.20;73.30
69382;DHT22;56560;50.692;12.844;2024-01-15T03:47:56;-0.30;73.00
69382;DHT22;56560;50.692;12.844;2024-01-15T03:50:21;-0.30;73.10
69382;DHT22;56560;50.692;12.844;2024-01-15T03:52:47;-0.30;73.20
69382;DHT22;56560;50.692;12.844;2024-01-15T03:55:12;-0.30;72.90
69382;DHT22;56560;50.692;12.844;2024-01-15T03:57:38;-0.30;72.90
69382;DHT22;56560;50.692;12.844;2024-01-15T04:00:04;-0.30;72.80
69382;DHT22;56560;50.692;12.844;2024-01-15T04:02:30;-0.30;72.70
69382;DHT22;56560;50.692;12.844;2024-01-15T04:04:56;-0.30;72.50
69382;DHT22;56560;50.692;12.844;2024-01-15T04:07:21;-0.40;72.60
69382;DHT22;56560;50.692;12.844;2024-01-15T04:09:47;-0.30;72.60
69382;DHT22;56560;50.692;12.844;2024-01-15T04:12:12;-0.30;72.40
69382;DHT22;56560;50.692;12.844;2024-01-15T04:14:38;-0.40;72.70
69382;DHT22;56560;50.692;12.844;2024-01-15T04:17:04;-0.40;72.70
69382;DHT22;56560;50.692;12.844;2024-01-15T04:19:29;-0.40;72.80
69382;DHT22;56560;50.692;12.844;2024-01-15T04:21:55;-0.40;73.00
69382;DHT22;56560;50.692;12.844;2024-01-15T04:24:20;-0.40;73.30
69382;DHT22;56560;50.692;12.844;2024-01-15T04:26:47;-0.40;73.10
69382;DHT22;56560;50.692;12.844;2024-01-15T04:29:12;-0.40;73.10
69382;DHT22;56560;50.692;12.844;2024-01-15T04:31:38;-0.40;73.20
69382;DHT22;56560;50.692;12.844;2024-01-15T04:34:04;-0.60;73.50
69382;DHT22;56560;50.692;12.844;2024-01-15T04:36:29;-0.80;74.20
69382;DHT22;56560;50.692;12.844;2024-01-15T04:38:55;-0.90;75.00
69382;DHT22;56560;50.692;12.844;2024-01-15T04:41:20;-0.80;75.10
69382;DHT22;56560;50.692;12.844;2024-01-15T04:43:46;-0.70;74.80
69382;DHT22;56560;50.692;12.844;2024-01-15T04:46:12;-0.50;74.00
69382;DHT22;56560;50.692;12.844;2024-01-15T04:48:37;-0.40;73.50
69382;DHT22;56560;50.692;12.844;2024-01-15T04:51:08;-0.30;73.20
69382;DHT22;56560;50.692;12.844;2024-01-15T04:53:34;-0.30;72.90
69382;DHT22;56560;50.692;12.844;2024-01-15T04:56:00;-0.40;73.10
69382;DHT22;56560;50.692;12.844;2024-01-15T04:58:26;-0.40;73.10
69382;DHT22;56560;50.692;12.844;2024-01-15T05:00:52;-0.40;72.80
69382;DHT22;56560;50.692;12.844;2024-01-15T05:03:19;-0.40;73.10
69382;DHT22;56560;50.692;12.844;2024-01-15T05:05:45;-0.40;73.30
69382;DHT22;56560;50.692;12.844;2024-01-15T05:08:11;-0.40;72.80
69382;DHT22;56560;50.692;12.844;2024-01-15T05:10:37;-0.40;72.80
69382;DHT22;56560;50.692;12.844;2024-01-15T05:13:02;-0.40;72.60
69382;DHT22;56560;50.692;12.844;2024-01-15T05:15:28;-0.40;72.50
69382;DHT22;56560;50.692;12.844;2024-01-15T05:17:53;-0.40;72.40
69382;DHT22;56560;50.692;12.844;2024-01-15T05:20:19;-0.40;72.30
69382;DHT22;56560;50.692;12.844;2024-01-15T05:22:45;-0.40;72.10
69382;DHT22;56560;50.692;12.844;2024-01-15T05:25:10;-0.40;72.20
69382;DHT22;56560;50.692;12.844;2024-01-15T05:27:36;-0.40;72.10
69382;DHT22;56560;50.692;12.844;2024-01-15T05:30:01;-0.40;72.10
69382;DHT22;56560;50.692;12.844;2024-01-15T05:32:27;-0.30;71.80
69382;DHT22;56560;50.692;12.844;2024-01-15T05:34:53;-0.30;72.00
69382;DHT22;56560;50.692;12.844;2024-01-15T05:37:18;-0.30;71.90
69382;DHT22;56560;50.692;12.844;2024-01-15T05:39:44;-0.30;71.90
69382;DHT22;56560;50.692;12.844;2024-01-15T05:42:10;-0.30;71.90
69382;DHT22;56560;50.692;12.844;2024-01-15T05:44:35;-0.30;71.90
69382;DHT22;56560;50.692;12.844;2024-01-15T05:47:01;-0.30;71.90
69382;DHT22;56560;50.692;12.844;2024-01-15T05:49:26;-0.30;71.90
69382;DHT22;56560;50.692;12.844;2024-01-15T05:51:52;-0.30;72.10
69382;DHT22;56560;50.692;12.844;2024-01-15T05:54:21;-0.40;72.10
69382;DHT22;56560;50.692;12.844;2024-01-15T05:56:46;-0.30;72.10
69382;DHT22;56560;50.692;12.844;2024-01-15T05:59:12;-0.20;71.80
69382;DHT22;56560;50.692;12.844;2024-01-15T06:01:38;-0.20;71.60
69382;DHT22;56560;50.692;12.844;2024-01-15T06:04:03;-0.10;71.30
69382;DHT22;56560;50.692;12.844;2024-01-15T06:06:29;-0.10;71.20
69382;DHT22;56560;50.692;12.844;2024-01-15T06:08:55;-0.10;71.00
69382;DHT22;56560;50.692;12.844;2024-01-15T06:11:20;-0.10;71.00
69382;DHT22;56560;50.692;12.844;2024-01-15T06:13:46;-0.10;70.90
69382;DHT22;56560;50.692;12.844;2024-01-15T06:16:14;-0.10;70.80
69382;DHT22;56560;50.692;12.844;2024-01-15T06:18:40;-0.20;71.10
69382;DHT22;56560;50.692;12.844;2024-01-15T06:21:05;-0.20;71.00
69382;DHT22;56560;50.692;12.844;2024-01-15T06:23:31;-0.20;70.90
69382;DHT22;56560;50.692;12.844;2024-01-15T06:25:56;-0.30;71.20
69382;DHT22;56560;50.692;12.844;2024-01-15T06:28:22;-0.40;71.60
69382;DHT22;56560;50.692;12.844;2024-01-15T06:30:48;-0.40;71.60
69382;DHT22;56560;50.692;12.844;2024-01-15T06:33:13;-0.40;71.50
69382;DHT22;56560;50.692;12.844;2024-01-15T06:35:39;-0.40;71.50
69382;DHT22;56560;50.692;12.844;2024-01-15T06:38:05;-0.40;71.70
69382;DHT22;56560;50.692;12.844;2024-01-15T06:40:30;-0.40;71.20
69382;DHT22;56560;50.692;12.844;2024-01-15T06:42:56;-0.40;71.20
69382;DHT22;56560;50.692;12.844;2024-01-15T06:45:21;-0.30;71.30
69382;DHT22;56560;50.692;12.844;2024-01-15T06:47:47;-0.30;70.70
69382;DHT22;56560;50.692;12.844;2024-01-15T06:50:13;-0.20;70.90
69382;DHT22;56560;50.692;12.844;2024-01-15T06:52:38;-0.20;70.90
69382;DHT22;56560;50.692;12.844;2024-01-15T06:55:04;-0.20;70.60
69382;DHT22;56560;50.692;12.844;2024-01-15T06:57:31;-0.20;70.50
69382;DHT22;56560;50.692;12.844;2024-01-15T06:59:56;-0.20;70.50
69382;DHT22;56560;50.692;12.844;2024-01-15T07:02:22;-0.20;70.10
69382;DHT22;56560;50.692;12.844;2024-01-15T07:04:48;-0.20;70.30
69382;DHT22;56560;50.692;12.844;2024-01-15T07:07:13;-0.20;70.10
69382;DHT22;56560;50.692;12.844;2024-01-15T07:09:39;-0.20;70.20
69382;DHT22;56560;50.692;12.844;2024-01-15T07:12:05;-0.20;70.20
69382;DHT22;56560;50.692;12.844;2024-01-15T07:14:30;-0.20;70.30
69382;DHT22;56560;50.692;12.844;2024-01-15T07:16:56;-0.20;70.40
69382;DHT22;56560;50.692;12.844;2024-01-15T07:19:21;-0.20;70.30
69382;DHT22;56560;50.692;12.844;2024-01-15T07:21:47;-0.10;70.00
69382;DHT22;56560;50.692;12.844;2024-01-15T07:24:13;-0.10;69.60
69382;DHT22;56560;50.692;12.844;2024-01-15T07:26:38;-0.10;69.80
69382;DHT22;56560;50.692;12.844;2024-01-15T07:29:04;0.00;69.10
69382;DHT22;56560;50.692;12.844;2024-01-15T07:31:30;0.00;69.20
69382;DHT22;56560;50.692;12.844;2024-01-15T07:33:56;0.00;69.10
69382;DHT22;56560;50.692;12.844;2024-01-15T07:36:21;0.00;69.00
69382;DHT22;56560;50.692;12.844;2024-01-15T07:38:47;0.00;69.10
69382;DHT22;56560;50.692;12.844;2024-01-15T07:41:16;0.00;69.10
69382;DHT22;56560;50.692;12.844;2024-01-15T07:43:41;0.00;68.70
69382;DHT22;56560;50.692;12.844;2024-01-15T07:46:07;0.00;68.70
69382;DHT22;56560;50.692;12.844;2024-01-15T07:48:33;0.00;68.70
69382;DHT22;56560;50.692;12.844;2024-01-15T07:50:59;0.00;68.70
69382;DHT22;56560;50.692;12.844;2024-01-15T07:53:25;0.00;68.40
69382;DHT22;56560;50.692;12.844;2024-01-15T07:55:50;0.00;68.10
69382;DHT22;56560;50.692;12.844;2024-01-15T07:58:16;0.00;68.10
69382;DHT22;56560;50.692;12.844;2024-01-15T08:00:42;0.00;68.10
69382;DHT22;56560;50.692;12.844;2024-01-15T08:03:07;0.10;68.20
69382;DHT22;56560;50.692;12.844;2024-01-15T08:05:33;0.20;68.00
69382;DHT22;56560;50.692;12.844;2024-01-15T08:07:58;0.30;67.50
69382;DHT22;56560;50.692;12.844;2024-01-15T08:10:24;0.30;67.00
69382;DHT22;56560;50.692;12.844;2024-01-15T08:12:50;0.30;67.30
69382;DHT22;56560;50.692;12.844;2024-01-15T08:15:15;0.30;67.10
69382;DHT22;56560;50.692;12.844;2024-01-15T08:17:41;0.40;66.90
69382;DHT22;56560;50.692;12.844;2024-01-15T08:20:07;0.40;67.00
69382;DHT22;56560;50.692;12.844;2024-01-15T08:22:32;0.50;66.40
69382;DHT22;56560;50.692;12.844;2024-01-15T08:24:58;0.50;66.30
69382;DHT22;56560;50.692;12.844;2024-01-15T08:27:24;0.60;66.30
69382;DHT22;56560;50.692;12.844;2024-01-15T08:29:49;0.50;65.40
69382;DHT22;56560;50.692;12.844;2024-01-15T08:32:15;0.50;65.50
69382;DHT22;56560;50.692;12.844;2024-01-15T08:34:41;0.50;65.80
69382;DHT22;56560;50.692;12.844;2024-01-15T08:37:07;0.60;65.20
69382;DHT22;56560;50.692;12.844;2024-01-15T08:39:36;0.70;65.00
69382;DHT22;56560;50.692;12.844;2024-01-15T08:42:05;0.70;64.80
69382;DHT22;56560;50.692;12.844;2024-01-15T08:44:38;0.80;65.00
69382;DHT22;56560;50.692;12.844;2024-01-15T08:47:05;0.90;65.00
69382;DHT22;56560;50.692;12.844;2024-01-15T08:49:31;0.90;64.80
69382;DHT22;56560;50.692;12.844;2024-01-15T08:51:57;1.00;64.70
69382;DHT22;56560;50.692;12.844;2024-01-15T08:54:23;1.00;63.70
69382;DHT22;56560;50.692;12.844;2024-01-15T08:56:48;1.00;63.70
69382;DHT22;56560;50.692;12.844;2024-01-15T08:59:14;0.90;64.10
69382;DHT22;56560;50.692;12.844;2024-01-15T09:01:40;0.90;64.30
69382;DHT22;56560;50.692;12.844;2024-01-15T09:04:05;0.90;64.20
69382;DHT22;56560;50.692;12.844;2024-01-15T09:06:31;0.90;64.40
69382;DHT22;56560;50.692;12.844;2024-01-15T09:08:57;0.90;64.10
69382;DHT22;56560;50.692;12.844;2024-01-15T09:11:22;0.90;64.30
69382;DHT22;56560;50.692;12.844;2024-01-15T09:13:48;1.00;68.70
69382;DHT22;56560;50.692;12.844;2024-01-15T09:16:13;1.20;70.40
69382;DHT22;56560;50.692;12.844;2024-01-15T09:18:39;1.50;65.80
69382;DHT22;56560;50.692;12.844;2024-01-15T09:21:05;1.50;63.10
69382;DHT22;56560;50.692;12.844;2024-01-15T09:23:30;1.40;62.40
69382;DHT22;56560;50.692;12.844;2024-01-15T09:25:56;1.20;62.90
69382;DHT22;56560;50.692;12.844;2024-01-15T09:28:21;1.10;63.50
69382;DHT22;56560;50.692;12.844;2024-01-15T09:30:48;1.00;63.60
69382;DHT22;56560;50.692;12.844;2024-01-15T09:33:13;0.90;63.90
69382;DHT22;56560;50.692;12.844;2024-01-15T09:35:39;1.00;64.30
69382;DHT22;56560;50.692;12.844;2024-01-15T09:38:05;1.00;64.10
69382;DHT22;56560;50.692;12.844;2024-01-15T09:40:31;1.10;64.00
69382;DHT22;56560;50.692;12.844;2024-01-15T09:43:00;1.10;63.50
69382;DHT22;56560;50.692;12.844;2024-01-15T09:45:26;1.20;63.60
69382;DHT22;56560;50.692;12.844;2024-01-15T09:47:52;1.30;62.90
69382;DHT22;56560;50.692;12.844;2024-01-15T09:50:18;1.30;63.20
69382;DHT22;56560;50.692;12.844;2024-01-15T09:52:44;1.30;63.40
69382;DHT22;56560;50.692;12.844;2024-01-15T09:55:13;1.30;63.00
69382;DHT22;56560;50.692;12.844;2024-01-15T09:57:39;1.40;63.20
69382;DHT22;56560;50.692;12.844;2024-01-15T10:00:05;1.40;63.30
69382;DHT22;56560;50.692;12.844;2024-01-15T10:02:33;1.50;62.70
69382;DHT22;56560;50.692;12.844;2024-01-15T10:04:59;1.50;62.90
69382;DHT22;56560;50.692;12.844;2024-01-15T10:07:25;1.60;62.60
69382;DHT22;56560;50.692;12.844;2024-01-15T10:09:54;1.80;62.30
69382;DHT22;56560;50.692;12.844;2024-01-15T10:12:22;2.00;61.30
69382;DHT22;56560;50.692;12.844;2024-01-15T10:14:48;2.10;61.50
69382;DHT22;56560;50.692;12.844;2024-01-15T10:17:15;2.40;60.50
69382;DHT22;56560;50.692;12.844;2024-01-15T10:19:41;2.50;60.10
69382;DHT22;56560;50.692;12.844;2024-01-15T10:22:08;2.70;59.60
69382;DHT22;56560;50.692;12.844;2024-01-15T10:24:36;2.80;59.10
69382;DHT22;56560;50.692;12.844;2024-01-15T10:27:06;2.90;58.40
69382;DHT22;56560;50.692;12.844;2024-01-15T10:29:32;2.90;58.00
69382;DHT22;56560;50.692;12.844;2024-01-15T10:32:00;2.80;58.30
69382;DHT22;56560;50.692;12.844;2024-01-15T10:34:26;2.60;58.70
69382;DHT22;56560;50.692;12.844;2024-01-15T10:36:52;2.50;59.10
69382;DHT22;56560;50.692;12.844;2024-01-15T10:39:22;2.60;59.40
69382;DHT22;56560;50.692;12.844;2024-01-15T10:41:47;2.70;58.60
69382;DHT22;56560;50.692;12.844;2024-01-15T10:44:13;2.80;58.40
69382;DHT22;56560;50.692;12.844;2024-01-15T10:46:39;3.00;57.80
69382;DHT22;56560;50.692;12.844;2024-01-15T10:49:05;3.30;57.50
69382;DHT22;56560;50.692;12.844;2024-01-15T10:51:32;3.30;56.80
69382;DHT22;56560;50.692;12.844;2024-01-15T10:53:59;3.30;56.40
69382;DHT22;56560;50.692;12.844;2024-01-15T10:56:26;3.20;56.50
69382;DHT22;56560;50.692;12.844;2024-01-15T10:58:54;3.10;57.20
69382;DHT22;56560;50.692;12.844;2024-01-15T11:01:20;3.10;57.30
69382;DHT22;56560;50.692;12.844;2024-01-15T11:03:49;3.10;56.90
69382;DHT22;56560;50.692;12.844;2024-01-15T11:06:19;3.00;57.20
69382;DHT22;56560;50.692;12.844;2024-01-15T11:08:52;2.90;56.90
69382;DHT22;56560;50.692;12.844;2024-01-15T11:11:18;2.70;57.40
69382;DHT22;56560;50.692;12.844;2024-01-15T11:13:47;2.70;57.30
69382;DHT22;56560;50.692;12.844;2024-01-15T11:16:15;2.80;57.60
69382;DHT22;56560;50.692;12.844;2024-01-15T11:21:25;2.90;57.10
69382;DHT22;56560;50.692;12.844;2024-01-15T11:23:57;2.90;56.80
69382;DHT22;56560;50.692;12.844;2024-01-15T11:26:28;2.90;57.20
69382;DHT22;56560;50.692;12.844;2024-01-15T11:28:55;3.00;57.10
69382;DHT22;56560;50.692;12.844;2024-01-15T11:34:03;3.10;56.60
69382;DHT22;56560;50.692;12.844;2024-01-15T11:41:59;3.10;59.90
69382;DHT22;56560;50.692;12.844;2024-01-15T11:44:28;3.50;62.50
69382;DHT22;56560;50.692;12.844;2024-01-15T11:47:06;4.00;58.90
69382;DHT22;56560;50.692;12.844;2024-01-15T11:52:18;4.30;54.30
69382;DHT22;56560;50.692;12.844;2024-01-15T11:57:25;4.10;54.30
69382;DHT22;56560;50.692;12.844;2024-01-15T11:59:54;3.90;55.00
69382;DHT22;56560;50.692;12.844;2024-01-15T12:02:20;3.60;55.50
69382;DHT22;56560;50.692;12.844;2024-01-15T12:04:45;3.40;56.20
69382;DHT22;56560;50.692;12.844;2024-01-15T12:07:11;3.10;56.90
69382;DHT22;56560;50.692;12.844;2024-01-15T12:09:44;3.00;57.60
69382;DHT22;56560;50.692;12.844;2024-01-15T12:12:24;3.00;57.70
69382;DHT22;56560;50.692;12.844;2024-01-15T12:14:50;2.90;58.00
69382;DHT22;56560;50.692;12.844;2024-01-15T12:17:16;2.80;58.20
69382;DHT22;56560;50.692;12.844;2024-01-15T12:19:43;2.70;58.90
69382;DHT22;56560;50.692;12.844;2024-01-15T12:22:09;2.70;58.80
69382;DHT22;56560;50.692;12.844;2024-01-15T12:24:35;2.60;59.20
69382;DHT22;56560;50.692;12.844;2024-01-15T12:27:01;2.70;59.10
69382;DHT22;56560;50.692;12.844;2024-01-15T12:29:27;2.60;59.20
69382;DHT22;56560;50.692;12.844;2024-01-15T12:31:53;2.60;59.30
69382;DHT22;56560;50.692;12.844;2024-01-15T12:34:19;2.50;59.40
69382;DHT22;56560;50.692;12.844;2024-01-15T12:36:48;2.40;59.70
69382;DHT22;56560;50.692;12.844;2024-01-15T12:39:14;2.30;60.60
69382;DHT22;56560;50.692;12.844;2024-01-15T12:41:41;2.30;60.60
69382;DHT22;56560;50.692;12.844;2024-01-15T12:44:06;2.20;60.90
69382;DHT22;56560;50.692;12.844;2024-01-15T12:46:32;2.10;60.90
69382;DHT22;56560;50.692;12.844;2024-01-15T12:48:58;2.00;61.20
69382;DHT22;56560;50.692;12.844;2024-01-15T12:51:26;1.90;61.50
69382;DHT22;56560;50.692;12.844;2024-01-15T12:53:53;1.80;61.80
69382;DHT22;56560;50.692;12.844;2024-01-15T12:56:19;1.80;62.70
69382;DHT22;56560;50.692;12.844;2024-01-15T12:58:44;1.80;62.30
69382;DHT22;56560;50.692;12.844;2024-01-15T13:01:10;1.70;62.50
69382;DHT22;56560;50.692;12.844;2024-01-15T13:03:35;1.80;62.40
69382;DHT22;56560;50.692;12.844;2024-01-15T13:06:01;1.80;62.20
69382;DHT22;56560;50.692;12.844;2024-01-15T13:08:27;1.90;62.40
69382;DHT22;56560;50.692;12.844;2024-01-15T13:10:55;2.00;61.60
69382;DHT22;56560;50.692;12.844;2024-01-15T13:13:22;2.00;61.50
69382;DHT22;56560;50.692;12.844;2024-01-15T13:15:48;2.00;61.70
69382;DHT22;56560;50.692;12.844;2024-01-15T13:18:14;1.90;61.70
69382;DHT22;56560;50.692;12.844;2024-01-15T13:20:39;1.80;62.20
69382;DHT22;56560;50.692;12.844;2024-01-15T13:23:05;1.80;62.40
69382;DHT22;56560;50.692;12.844;2024-01-15T13:25:31;1.70;62.40
69382;DHT22;56560;50.692;12.844;2024-01-15T13:27:57;1.70;62.80
69382;DHT22;56560;50.692;12.844;2024-01-15T13:30:23;1.70;62.70
69382;DHT22;56560;50.692;12.844;2024-01-15T13:32:49;1.70;63.00
69382;DHT22;56560;50.692;12.844;2024-01-15T13:35:14;1.70;62.80
69382;DHT22;56560;50.692;12.844;2024-01-15T13:37:40;1.60;63.20
69382;DHT22;56560;50.692;12.844;2024-01-15T13:40:09;1.70;63.10
69382;DHT22;56560;50.692;12.844;2024-01-15T13:42:35;1.80;63.20
69382;DHT22;56560;50.692;12.844;2024-01-15T13:45:05;1.90;63.10
69382;DHT22;56560;50.692;12.844;2024-01-15T13:47:31;2.10;63.10
69382;DHT22;56560;50.692;12.844;2024-01-15T13:49:57;2.10;63.10
69382;DHT22;56560;50.692;12.844;2024-01-15T13:52:23;2.00;63.40
69382;DHT22;56560;50.692;12.844;2024-01-15T13:54:49;1.80;65.20
69382;DHT22;56560;50.692;12.844;2024-01-15T13:57:15;1.70;65.10
69382;DHT22;56560;50.692;12.844;2024-01-15T13:59:41;1.70;65.00
69382;DHT22;56560;50.692;12.844;2024-01-15T14:02:06;1.60;67.60
69382;DHT22;56560;50.692;12.844;2024-01-15T14:04:32;1.80;66.80
69382;DHT22;56560;50.692;12.844;2024-01-15T14:06:58;1.90;68.20
69382;DHT22;56560;50.692;12.844;2024-01-15T14:09:23;2.00;67.10
69382;DHT22;56560;50.692;12.844;2024-01-15T14:11:50;2.10;66.60
69382;DHT22;56560;50.692;12.844;2024-01-15T14:14:16;2.20;66.30
69382;DHT22;56560;50.692;12.844;2024-01-15T14:16:44;2.20;66.50
69382;DHT22;56560;50.692;12.844;2024-01-15T14:19:09;2.30;67.10
69382;DHT22;56560;50.692;12.844;2024-01-15T14:21:36;2.30;63.40
69382;DHT22;56560;50.692;12.844;2024-01-15T14:24:02;2.20;63.40
69382;DHT22;56560;50.692;12.844;2024-01-15T14:26:27;2.00;63.80
69382;DHT22;56560;50.692;12.844;2024-01-15T14:28:53;1.80;64.50
69382;DHT22;56560;50.692;12.844;2024-01-15T14:31:20;1.80;64.90
69382;DHT22;56560;50.692;12.844;2024-01-15T14:33:46;1.60;65.30
69382;DHT22;56560;50.692;12.844;2024-01-15T14:36:14;1.60;65.50
69382;DHT22;56560;50.692;12.844;2024-01-15T14:38:39;1.50;65.70
69382;DHT22;56560;50.692;12.844;2024-01-15T14:41:05;1.50;65.70
69382;DHT22;56560;50.692;12.844;2024-01-15T14:43:30;1.30;66.40
69382;DHT22;56560;50.692;12.844;2024-01-15T14:45:56;1.20;66.80
69382;DHT22;56560;50.692;12.844;2024-01-15T14:48:22;1.10;67.20
69382;DHT22;56560;50.692;12.844;2024-01-15T14:50:47;1.20;67.60
69382;DHT22;56560;50.692;12.844;2024-01-15T14:53:13;1.10;67.60
69382;DHT22;56560;50.692;12.844;2024-01-15T14:55:39;1.20;68.00
69382;DHT22;56560;50.692;12.844;2024-01-15T14:58:04;1.30;68.10
69382;DHT22;56560;50.692;12.844;2024-01-15T15:00:30;1.30;67.60
69382;DHT22;56560;50.692;12.844;2024-01-15T15:02:55;1.20;68.20
69382;DHT22;56560;50.692;12.844;2024-01-15T15:05:21;1.20;68.70
69382;DHT22;56560;50.692;12.844;2024-01-15T15:07:47;1.20;68.90
69382;DHT22;56560;50.692;12.844;2024-01-15T15:10:12;1.20;68.80
69382;DHT22;56560;50.692;12.844;2024-01-15T15:12:38;1.30;68.60
69382;DHT22;56560;50.692;12.844;2024-01-15T15:15:04;1.30;68.40
69382;DHT22;56560;50.692;12.844;2024-01-15T15:17:30;1.30;68.50
69382;DHT22;56560;50.692;12.844;2024-01-15T15:19:55;1.30;68.40
69382;DHT22;56560;50.692;12.844;2024-01-15T15:22:21;1.20;68.40
69382;DHT22;56560;50.692;12.844;2024-01-15T15:24:47;1.30;68.90
69382;DHT22;56560;50.692;12.844;2024-01-15T15:27:12;1.30;69.20
69382;DHT22;56560;50.692;12.844;2024-01-15T15:29:38;1.20;73.40
69382;DHT22;56560;50.692;12.844;2024-01-15T15:32:04;1.00;75.80
69382;DHT22;56560;50.692;12.844;2024-01-15T15:34:30;1.00;76.40
69382;DHT22;56560;50.692;12.844;2024-01-15T15:36:56;0.90;76.50